7VA0 weather

Airduce Heliport
Cheriton, Virginia, United States

Public forecast

Using degrees Fahrenheit for public forecast. Weather courtesy of forecast.io.

Closest aviation weather report (METAR) to Airduce Heliport

Closest report is Langley Air Force Base, 21.8 nm (40.4 km) WSW. Retrieved 2019/11/18 09:56 UTC (10 minutes ago):

KLFI 180956Z 34012KT 10SM OVC008 06/06 A2984 RMK AO2A CIG 007 RWY08 SLP111 T00630063

Closest aviation forecast (TAF) to Airduce Heliport

Closest forecast is Langley Air Force Base, 21.8 nm (40.4 km) WSW. Retrieved 2019/11/18 10:13 UTC (0 seconds ago):

TAF KLFI 181000Z 1810/1916 35010G20KT 4800 BR OVC007 QNH2980INS TEMPO 1810/1815 4000 OVC005 BECMG 1817/1818 30009KT 9999 NSW OVC009 QNH2975INS BECMG 1900/1901 26009KT 4800 -RA BR BKN009 QNH2979INS BECMG 1903/1904 26009KT 8000 BR BKN007 QNH2980INS TX10/1819Z TN07/1810Z